Annandale, NY

1:28 AM EDT on September 16, 2014 (GMT -0400)
Stewart International | Change Station
CLOSE
Current Station
Airport
Location: Newburgh,
Elevation: 492 ft
Nearby Weather Stations

Elev 492 ft 41.50 °N, 74.10 °W | Updated 1 hour ago

Overcast
Overcast
55 °F
Feels Like 55 °F
N
0
Wind Variable Wind from North

Today
High -- | Low -- °F
--% Chance of Precip.
Yesterday
High -- | Low -- °F
Precip. -- in
6:36 AM 7:03 PM
Waning Gibbous, 49% visible
Pressure 30.08 in
Visibility 10.0 miles
Clouds Clear
Dew Point 50 °F
Humidity 82%
Rainfall 0.00 in
Snow Depth Not available.
UV 0 out of 12
Pollen 2.80 out of 12
PM2.5 Good
Flu Activity Not available.
METAR KSWF 160345Z 00000KT 10SM SKC 13/10 A3008

More Conditions Fewer Conditions

Pressure 30.08 in
Visibility 10.0 miles
Clouds Clear
Dew Point 50 °F
Humidity 82%
Rainfall 0.00 in
Snow Depth Not available.
UV 0 out of 12
Pollen 2.80 out of 12
PM2.5 Good
Flu Activity Not available.
METAR KSWF 160345Z 00000KT 10SM SKC 13/10 A3008

More Conditions Fewer Conditions

10-Day Weather Forecast

Almanac

Astronomy

Sep. 16, 2014 Rise Set
Actual Time 6:36 AM EDT 7:03 PM EDT
Civil Twilight 6:08 AM EDT 7:31 PM EDT
Nautical Twilight 5:35 AM EDT 8:04 PM EDT
Astronomical Twilight 5:01 AM EDT 8:38 PM EDT
Moon No Moon Rise 2:29 PM EDT
Length of Visible Light 13h 22m
Length of Day
12h 26m
Tomorrow will be 2m 48s shorter.
Waning Gibbous, 49% of the Moon is Illuminated
Today
Waning Gibbous
Sep 24
New
Oct 1
First Quarter
Oct 8
Full
Oct 15
Last Quarter

Today's Extremes

State Highs State Lows

Community

WunderPhotos

Upload Photos

1,753,702 photos uploaded!

Nearby

Air Quality

  Air Quality AQ Index Pollutant
Yesterday Good
OZONE
Yesterday Good
PM2.5
Current Good
PM2.5
Monday Good
OZONE
Monday Good
PM2.5
Tuesday Good
OZONE
Tuesday Good
PM2.5

Snow Depth

Station Depth Elevation
No new snow has been reported.

Earthquake Activity

City Distance Mag. Time & Date
No recent earthquake activity has been reported nearby.
Minimum magnitude displayed is 2.5.

Coastal Water Temperatures

Place Temperature
No Stations Reporting

Nearby Weather Stations